sensor_id;sensor_type;location;lat;lon;timestamp;temperature;humidity
1355;DHT22;671;48.972;9.276;2022-11-11T00:01:00;6.10;99.90
1355;DHT22;671;48.972;9.276;2022-11-11T00:03:26;6.00;99.90
1355;DHT22;671;48.972;9.276;2022-11-11T00:05:53;6.00;99.90
1355;DHT22;671;48.972;9.276;2022-11-11T00:08:20;6.00;99.90
1355;DHT22;671;48.972;9.276;2022-11-11T00:10:46;5.90;99.90
1355;DHT22;671;48.972;9.276;2022-11-11T00:13:13;6.00;99.90
1355;DHT22;671;48.972;9.276;2022-11-11T00:15:39;5.90;99.90
1355;DHT22;671;48.972;9.276;2022-11-11T00:18:09;5.90;99.90
1355;DHT22;671;48.972;9.276;2022-11-11T00:20:57;5.90;99.90
1355;DHT22;671;48.972;9.276;2022-11-11T00:23:42;5.90;99.90
1355;DHT22;671;48.972;9.276;2022-11-11T00:26:27;6.00;99.90
1355;DHT22;671;48.972;9.276;2022-11-11T00:28:54;5.90;99.90
1355;DHT22;671;48.972;9.276;2022-11-11T00:31:21;5.90;99.90
1355;DHT22;671;48.972;9.276;2022-11-11T00:33:47;5.90;99.90
1355;DHT22;671;48.972;9.276;2022-11-11T00:36:14;5.80;99.90
1355;DHT22;671;48.972;9.276;2022-11-11T00:38:40;5.80;99.90
1355;DHT22;671;48.972;9.276;2022-11-11T00:41:17;5.80;99.90
1355;DHT22;671;48.972;9.276;2022-11-11T00:43:45;5.90;99.90
1355;DHT22;671;48.972;9.276;2022-11-11T00:46:13;5.90;99.90
1355;DHT22;671;48.972;9.276;2022-11-11T00:48:59;5.90;99.90
1355;DHT22;671;48.972;9.276;2022-11-11T00:51:44;5.80;99.90
1355;DHT22;671;48.972;9.276;2022-11-11T00:54:11;5.80;99.90
1355;DHT22;671;48.972;9.276;2022-11-11T00:56:38;5.80;99.90
1355;DHT22;671;48.972;9.276;2022-11-11T00:59:06;5.80;99.90
1355;DHT22;671;48.972;9.276;2022-11-11T01:01:34;5.80;99.90
1355;DHT22;671;48.972;9.276;2022-11-11T01:04:01;5.80;99.90
1355;DHT22;671;48.972;9.276;2022-11-11T01:06:27;5.70;99.90
1355;DHT22;671;48.972;9.276;2022-11-11T01:08:54;5.70;99.90
1355;DHT22;671;48.972;9.276;2022-11-11T01:11:22;5.70;99.90
1355;DHT22;671;48.972;9.276;2022-11-11T01:13:50;5.70;99.90
1355;DHT22;671;48.972;9.276;2022-11-11T01:16:22;5.70;99.90
1355;DHT22;671;48.972;9.276;2022-11-11T01:18:50;5.60;99.90
1355;DHT22;671;48.972;9.276;2022-11-11T01:21:20;5.60;99.90
1355;DHT22;671;48.972;9.276;2022-11-11T01:23:47;5.60;99.90
1355;DHT22;671;48.972;9.276;2022-11-11T01:28:48;5.60;99.90
1355;DHT22;671;48.972;9.276;2022-11-11T01:31:16;5.60;99.90
1355;DHT22;671;48.972;9.276;2022-11-11T01:33:43;5.60;99.90
1355;DHT22;671;48.972;9.276;2022-11-11T01:36:11;5.60;99.90
1355;DHT22;671;48.972;9.276;2022-11-11T01:38:38;5.60;99.90
1355;DHT22;671;48.972;9.276;2022-11-11T01:41:06;5.60;99.90
1355;DHT22;671;48.972;9.276;2022-11-11T01:43:52;5.60;99.90
1355;DHT22;671;48.972;9.276;2022-11-11T01:49:01;5.50;99.90
1355;DHT22;671;48.972;9.276;2022-11-11T01:57:03;5.40;99.90
1355;DHT22;671;48.972;9.276;2022-11-11T01:59:33;5.40;99.90
1355;DHT22;671;48.972;9.276;2022-11-11T02:02:04;5.40;99.90
1355;DHT22;671;48.972;9.276;2022-11-11T02:04:33;5.40;99.90
1355;DHT22;671;48.972;9.276;2022-11-11T02:07:20;5.40;99.90
1355;DHT22;671;48.972;9.276;2022-11-11T02:09:47;5.40;99.90
1355;DHT22;671;48.972;9.276;2022-11-11T02:12:13;5.40;99.90
1355;DHT22;671;48.972;9.276;2022-11-11T02:14:59;5.40;99.90
1355;DHT22;671;48.972;9.276;2022-11-11T02:17:28;5.40;99.90
1355;DHT22;671;48.972;9.276;2022-11-11T02:19:58;5.40;99.90
1355;DHT22;671;48.972;9.276;2022-11-11T02:25:10;5.30;99.90
1355;DHT22;671;48.972;9.276;2022-11-11T02:27:41;5.30;99.90
1355;DHT22;671;48.972;9.276;2022-11-11T02:30:09;5.30;99.90
1355;DHT22;671;48.972;9.276;2022-11-11T02:32:46;5.30;99.90
1355;DHT22;671;48.972;9.276;2022-11-11T02:35:20;5.30;99.90
1355;DHT22;671;48.972;9.276;2022-11-11T02:37:51;5.30;99.90
1355;DHT22;671;48.972;9.276;2022-11-11T02:40:34;5.20;99.90
1355;DHT22;671;48.972;9.276;2022-11-11T02:43:01;5.20;99.90
1355;DHT22;671;48.972;9.276;2022-11-11T02:45:28;5.20;99.90
1355;DHT22;671;48.972;9.276;2022-11-11T02:47:54;5.20;99.90
1355;DHT22;671;48.972;9.276;2022-11-11T02:50:21;5.20;99.90
1355;DHT22;671;48.972;9.276;2022-11-11T02:52:47;5.20;99.90
1355;DHT22;671;48.972;9.276;2022-11-11T02:55:14;5.20;99.90
1355;DHT22;671;48.972;9.276;2022-11-11T02:57:40;5.20;99.90
1355;DHT22;671;48.972;9.276;2022-11-11T03:00:07;5.10;99.90
1355;DHT22;671;48.972;9.276;2022-11-11T03:02:34;5.10;99.90
1355;DHT22;671;48.972;9.276;2022-11-11T03:05:00;5.10;99.90
1355;DHT22;671;48.972;9.276;2022-11-11T03:07:27;5.10;99.90
1355;DHT22;671;48.972;9.276;2022-11-11T03:09:53;5.10;99.90
1355;DHT22;671;48.972;9.276;2022-11-11T03:12:20;5.00;99.90
1355;DHT22;671;48.972;9.276;2022-11-11T03:14:46;5.00;99.90
1355;DHT22;671;48.972;9.276;2022-11-11T03:17:13;5.00;99.90
1355;DHT22;671;48.972;9.276;2022-11-11T03:19:58;5.00;99.90
1355;DHT22;671;48.972;9.276;2022-11-11T03:22:46;5.00;99.90
1355;DHT22;671;48.972;9.276;2022-11-11T03:25:23;5.00;99.90
1355;DHT22;671;48.972;9.276;2022-11-11T03:30:35;4.90;99.90
1355;DHT22;671;48.972;9.276;2022-11-11T03:33:02;4.90;99.90
1355;DHT22;671;48.972;9.276;2022-11-11T03:35:29;4.90;99.90
1355;DHT22;671;48.972;9.276;2022-11-11T03:37:56;4.90;99.90
1355;DHT22;671;48.972;9.276;2022-11-11T03:40:42;4.90;99.90
1355;DHT22;671;48.972;9.276;2022-11-11T03:43:09;4.90;99.90
1355;DHT22;671;48.972;9.276;2022-11-11T03:45:36;4.90;99.90
1355;DHT22;671;48.972;9.276;2022-11-11T03:48:03;4.90;99.90
1355;DHT22;671;48.972;9.276;2022-11-11T03:50:30;4.90;99.90
1355;DHT22;671;48.972;9.276;2022-11-11T03:52:57;4.90;99.90
1355;DHT22;671;48.972;9.276;2022-11-11T03:55:23;4.90;99.90
1355;DHT22;671;48.972;9.276;2022-11-11T03:57:50;4.90;99.90
1355;DHT22;671;48.972;9.276;2022-11-11T04:00:19;5.00;99.90
1355;DHT22;671;48.972;9.276;2022-11-11T04:02:46;5.00;99.90
1355;DHT22;671;48.972;9.276;2022-11-11T04:05:32;4.90;99.90
1355;DHT22;671;48.972;9.276;2022-11-11T04:08:18;4.90;99.90
1355;DHT22;671;48.972;9.276;2022-11-11T04:11:08;4.90;99.90
1355;DHT22;671;48.972;9.276;2022-11-11T04:13:36;4.90;99.90
1355;DHT22;671;48.972;9.276;2022-11-11T04:16:22;4.90;99.90
1355;DHT22;671;48.972;9.276;2022-11-11T04:18:49;4.80;99.90
1355;DHT22;671;48.972;9.276;2022-11-11T04:21:35;4.80;99.90
1355;DHT22;671;48.972;9.276;2022-11-11T04:24:16;4.80;99.90
1355;DHT22;671;48.972;9.276;2022-11-11T04:27:03;4.80;99.90
1355;DHT22;671;48.972;9.276;2022-11-11T04:29:30;4.80;99.90
1355;DHT22;671;48.972;9.276;2022-11-11T04:31:59;4.80;99.90
1355;DHT22;671;48.972;9.276;2022-11-11T04:34:50;4.80;99.90
1355;DHT22;671;48.972;9.276;2022-11-11T04:37:17;4.80;99.90
1355;DHT22;671;48.972;9.276;2022-11-11T04:39:44;4.80;99.90
1355;DHT22;671;48.972;9.276;2022-11-11T04:42:30;4.80;99.90
1355;DHT22;671;48.972;9.276;2022-11-11T04:44:58;4.80;99.90
1355;DHT22;671;48.972;9.276;2022-11-11T04:47:59;4.80;99.90
1355;DHT22;671;48.972;9.276;2022-11-11T04:50:31;4.80;99.90
1355;DHT22;671;48.972;9.276;2022-11-11T04:52:59;4.70;99.90
1355;DHT22;671;48.972;9.276;2022-11-11T04:55:26;4.70;99.90
1355;DHT22;671;48.972;9.276;2022-11-11T04:58:12;4.60;99.90
1355;DHT22;671;48.972;9.276;2022-11-11T05:00:38;4.50;99.90
1355;DHT22;671;48.972;9.276;2022-11-11T05:03:05;4.50;99.90
1355;DHT22;671;48.972;9.276;2022-11-11T05:05:50;4.50;99.90
1355;DHT22;671;48.972;9.276;2022-11-11T05:08:37;4.50;99.90
1355;DHT22;671;48.972;9.276;2022-11-11T05:11:33;4.50;99.90
1355;DHT22;671;48.972;9.276;2022-11-11T05:14:02;4.50;99.90
1355;DHT22;671;48.972;9.276;2022-11-11T05:16:50;4.50;99.90
1355;DHT22;671;48.972;9.276;2022-11-11T05:19:35;4.50;99.90
1355;DHT22;671;48.972;9.276;2022-11-11T05:24:49;4.40;99.90
1355;DHT22;671;48.972;9.276;2022-11-11T05:27:34;4.40;99.90
1355;DHT22;671;48.972;9.276;2022-11-11T05:30:01;4.50;99.90
1355;DHT22;671;48.972;9.276;2022-11-11T05:32:27;4.50;99.90
1355;DHT22;671;48.972;9.276;2022-11-11T05:34:54;4.50;99.90
1355;DHT22;671;48.972;9.276;2022-11-11T05:37:21;4.50;99.90
1355;DHT22;671;48.972;9.276;2022-11-11T05:39:47;4.50;99.90
1355;DHT22;671;48.972;9.276;2022-11-11T05:42:14;4.50;99.90
1355;DHT22;671;48.972;9.276;2022-11-11T05:44:40;4.50;99.90
1355;DHT22;671;48.972;9.276;2022-11-11T05:47:07;4.60;99.90
1355;DHT22;671;48.972;9.276;2022-11-11T05:49:34;4.60;99.90
1355;DHT22;671;48.972;9.276;2022-11-11T05:52:00;4.60;99.90
1355;DHT22;671;48.972;9.276;2022-11-11T05:54:27;4.60;99.90
1355;DHT22;671;48.972;9.276;2022-11-11T05:56:54;4.60;99.90
1355;DHT22;671;48.972;9.276;2022-11-11T05:59:21;4.50;99.90
1355;DHT22;671;48.972;9.276;2022-11-11T06:01:47;4.50;99.90
1355;DHT22;671;48.972;9.276;2022-11-11T06:04:14;4.60;99.90
1355;DHT22;671;48.972;9.276;2022-11-11T06:06:40;4.60;99.90
1355;DHT22;671;48.972;9.276;2022-11-11T06:09:07;4.60;99.90
1355;DHT22;671;48.972;9.276;2022-11-11T06:11:33;4.60;99.90
1355;DHT22;671;48.972;9.276;2022-11-11T06:14:00;4.60;99.90
1355;DHT22;671;48.972;9.276;2022-11-11T06:16:26;4.60;99.90
1355;DHT22;671;48.972;9.276;2022-11-11T06:18:53;4.60;99.90
1355;DHT22;671;48.972;9.276;2022-11-11T06:21:19;4.60;99.90
1355;DHT22;671;48.972;9.276;2022-11-11T06:23:46;4.70;99.90
1355;DHT22;671;48.972;9.276;2022-11-11T06:26:13;4.70;99.90
1355;DHT22;671;48.972;9.276;2022-11-11T06:31:16;4.70;99.90
1355;DHT22;671;48.972;9.276;2022-11-11T06:33:43;4.70;99.90
1355;DHT22;671;48.972;9.276;2022-11-11T06:36:12;4.70;99.90
1355;DHT22;671;48.972;9.276;2022-11-11T06:38:40;4.70;99.90
1355;DHT22;671;48.972;9.276;2022-11-11T06:41:08;4.70;99.90
1355;DHT22;671;48.972;9.276;2022-11-11T06:43:35;4.80;99.90
1355;DHT22;671;48.972;9.276;2022-11-11T06:46:01;4.80;99.90
1355;DHT22;671;48.972;9.276;2022-11-11T06:48:28;4.70;99.90
1355;DHT22;671;48.972;9.276;2022-11-11T06:51:03;4.70;99.90
1355;DHT22;671;48.972;9.276;2022-11-11T06:53:30;4.70;99.90
1355;DHT22;671;48.972;9.276;2022-11-11T06:55:57;4.70;99.90
1355;DHT22;671;48.972;9.276;2022-11-11T06:58:24;4.70;99.90
1355;DHT22;671;48.972;9.276;2022-11-11T07:00:50;4.70;99.90
1355;DHT22;671;48.972;9.276;2022-11-11T07:03:18;4.70;99.90
1355;DHT22;671;48.972;9.276;2022-11-11T07:05:46;4.80;99.90
1355;DHT22;671;48.972;9.276;2022-11-11T07:08:14;4.80;99.90
1355;DHT22;671;48.972;9.276;2022-11-11T07:10:46;4.80;99.90
1355;DHT22;671;48.972;9.276;2022-11-11T07:13:16;4.80;99.90
1355;DHT22;671;48.972;9.276;2022-11-11T07:15:43;4.90;99.90
1355;DHT22;671;48.972;9.276;2022-11-11T07:18:10;4.90;99.90
1355;DHT22;671;48.972;9.276;2022-11-11T07:20:37;5.00;99.90
1355;DHT22;671;48.972;9.276;2022-11-11T07:23:04;5.10;99.90
1355;DHT22;671;48.972;9.276;2022-11-11T07:25:31;5.20;99.90
1355;DHT22;671;48.972;9.276;2022-11-11T07:27:58;5.20;99.90
1355;DHT22;671;48.972;9.276;2022-11-11T07:30:25;5.30;99.90
1355;DHT22;671;48.972;9.276;2022-11-11T07:32:53;5.40;99.90
1355;DHT22;671;48.972;9.276;2022-11-11T07:35:21;5.40;99.90
1355;DHT22;671;48.972;9.276;2022-11-11T07:37:47;5.40;99.90
1355;DHT22;671;48.972;9.276;2022-11-11T07:40:16;5.50;99.90
1355;DHT22;671;48.972;9.276;2022-11-11T07:42:43;5.60;99.90
1355;DHT22;671;48.972;9.276;2022-11-11T07:45:10;5.60;99.90
1355;DHT22;671;48.972;9.276;2022-11-11T07:47:37;5.60;99.90
1355;DHT22;671;48.972;9.276;2022-11-11T07:50:05;5.60;99.90
1355;DHT22;671;48.972;9.276;2022-11-11T07:52:33;5.70;99.90
1355;DHT22;671;48.972;9.276;2022-11-11T07:54:59;5.70;99.90
1355;DHT22;671;48.972;9.276;2022-11-11T07:57:26;5.70;99.90
1355;DHT22;671;48.972;9.276;2022-11-11T07:59:52;5.80;99.90
1355;DHT22;671;48.972;9.276;2022-11-11T08:02:19;5.80;99.90
1355;DHT22;671;48.972;9.276;2022-11-11T08:04:45;5.80;99.90
1355;DHT22;671;48.972;9.276;2022-11-11T08:07:13;5.90;99.90
1355;DHT22;671;48.972;9.276;2022-11-11T08:09:39;5.90;99.90
1355;DHT22;671;48.972;9.276;2022-11-11T08:12:07;6.00;99.90
1355;DHT22;671;48.972;9.276;2022-11-11T08:14:52;6.00;99.90
1355;DHT22;671;48.972;9.276;2022-11-11T08:17:19;6.10;99.90
1355;DHT22;671;48.972;9.276;2022-11-11T08:19:45;6.10;99.90
1355;DHT22;671;48.972;9.276;2022-11-11T08:22:11;6.20;99.90
1355;DHT22;671;48.972;9.276;2022-11-11T08:24:38;6.20;99.90
1355;DHT22;671;48.972;9.276;2022-11-11T08:27:04;6.30;99.90
1355;DHT22;671;48.972;9.276;2022-11-11T08:29:31;6.40;99.90
1355;DHT22;671;48.972;9.276;2022-11-11T08:31:57;6.50;99.90
1355;DHT22;671;48.972;9.276;2022-11-11T08:34:24;6.50;99.90
1355;DHT22;671;48.972;9.276;2022-11-11T08:36:50;6.60;99.90
1355;DHT22;671;48.972;9.276;2022-11-11T08:39:17;6.70;99.90
1355;DHT22;671;48.972;9.276;2022-11-11T08:41:43;6.80;99.90
1355;DHT22;671;48.972;9.276;2022-11-11T08:44:09;7.00;99.90
1355;DHT22;671;48.972;9.276;2022-11-11T08:46:36;7.10;99.90
1355;DHT22;671;48.972;9.276;2022-11-11T08:49:02;7.30;99.90
1355;DHT22;671;48.972;9.276;2022-11-11T08:51:29;7.40;99.90
1355;DHT22;671;48.972;9.276;2022-11-11T08:53:55;7.50;99.90
1355;DHT22;671;48.972;9.276;2022-11-11T08:56:22;7.70;99.90
1355;DHT22;671;48.972;9.276;2022-11-11T08:58:48;7.80;99.90
1355;DHT22;671;48.972;9.276;2022-11-11T09:01:15;8.00;99.90
1355;DHT22;671;48.972;9.276;2022-11-11T09:03:41;8.10;99.90
1355;DHT22;671;48.972;9.276;2022-11-11T09:06:10;8.30;99.90
1355;DHT22;671;48.972;9.276;2022-11-11T09:08:39;8.50;99.90
1355;DHT22;671;48.972;9.276;2022-11-11T09:11:06;8.60;99.90
1355;DHT22;671;48.972;9.276;2022-11-11T09:13:33;8.70;99.90
1355;DHT22;671;48.972;9.276;2022-11-11T09:15:59;8.90;99.90
1355;DHT22;671;48.972;9.276;2022-11-11T09:18:26;9.00;99.90
1355;DHT22;671;48.972;9.276;2022-11-11T09:20:52;9.10;99.90
1355;DHT22;671;48.972;9.276;2022-11-11T09:23:19;9.20;99.90
1355;DHT22;671;48.972;9.276;2022-11-11T09:25:45;9.30;99.90
1355;DHT22;671;48.972;9.276;2022-11-11T09:28:12;9.40;99.90
1355;DHT22;671;48.972;9.276;2022-11-11T09:30:38;9.40;99.90
1355;DHT22;671;48.972;9.276;2022-11-11T09:33:05;9.50;99.90
1355;DHT22;671;48.972;9.276;2022-11-11T09:35:32;9.70;99.90
1355;DHT22;671;48.972;9.276;2022-11-11T09:37:59;9.80;99.90
1355;DHT22;671;48.972;9.276;2022-11-11T09:40:37;9.90;99.90
1355;DHT22;671;48.972;9.276;2022-11-11T09:43:22;10.00;99.90
1355;DHT22;671;48.972;9.276;2022-11-11T09:54:47;10.50;99.90
1355;DHT22;671;48.972;9.276;2022-11-11T09:59:54;10.70;99.90
1355;DHT22;671;48.972;9.276;2022-11-11T10:03:24;10.80;99.90
1355;DHT22;671;48.972;9.276;2022-11-11T10:05:29;10.90;99.90
1355;DHT22;671;48.972;9.276;2022-11-11T10:08:24;11.00;99.90
1355;DHT22;671;48.972;9.276;2022-11-11T10:10:53;11.10;99.90
1355;DHT22;671;48.972;9.276;2022-11-11T10:13:32;11.20;99.90
1355;DHT22;671;48.972;9.276;2022-11-11T10:19:26;11.40;99.90
1355;DHT22;671;48.972;9.276;2022-11-11T10:21:58;11.50;99.90
1355;DHT22;671;48.972;9.276;2022-11-11T10:24:34;11.60;99.90
1355;DHT22;671;48.972;9.276;2022-11-11T10:27:13;11.80;99.90
1355;DHT22;671;48.972;9.276;2022-11-11T10:29:43;11.80;99.90
1355;DHT22;671;48.972;9.276;2022-11-11T10:32:23;11.90;99.90
1355;DHT22;671;48.972;9.276;2022-11-11T10:34:51;12.00;99.90
1355;DHT22;671;48.972;9.276;2022-11-11T10:37:22;12.00;99.90
1355;DHT22;671;48.972;9.276;2022-11-11T10:42:25;12.30;99.90
1355;DHT22;671;48.972;9.276;2022-11-11T10:44:57;12.40;99.90
1355;DHT22;671;48.972;9.276;2022-11-11T10:47:38;12.50;99.90
1355;DHT22;671;48.972;9.276;2022-11-11T10:50:25;12.60;99.90
1355;DHT22;671;48.972;9.276;2022-11-11T10:53:19;12.60;99.90
1355;DHT22;671;48.972;9.276;2022-11-11T10:55:49;12.60;99.90
1355;DHT22;671;48.972;9.276;2022-11-11T10:58:27;12.60;99.90
1355;DHT22;671;48.972;9.276;2022-11-11T11:00:56;12.70;99.90
1355;DHT22;671;48.972;9.276;2022-11-11T11:03:46;12.80;99.90
1355;DHT22;671;48.972;9.276;2022-11-11T11:08:50;12.90;99.90
1355;DHT22;671;48.972;9.276;2022-11-11T11:14:04;13.00;99.90
1355;DHT22;671;48.972;9.276;2022-11-11T11:16:34;13.00;99.90
1355;DHT22;671;48.972;9.276;2022-11-11T11:19:21;13.00;99.90
1355;DHT22;671;48.972;9.276;2022-11-11T11:24:25;13.00;99.90
1355;DHT22;671;48.972;9.276;2022-11-11T11:26:55;13.10;99.90
1355;DHT22;671;48.972;9.276;2022-11-11T11:31:52;13.20;99.90
1355;DHT22;671;48.972;9.276;2022-11-11T11:34:18;13.20;99.90
1355;DHT22;671;48.972;9.276;2022-11-11T11:37:01;13.30;99.90
1355;DHT22;671;48.972;9.276;2022-11-11T11:39:35;13.40;99.90
1355;DHT22;671;48.972;9.276;2022-11-11T11:42:01;13.40;99.90
1355;DHT22;671;48.972;9.276;2022-11-11T11:44:33;13.50;99.90
1355;DHT22;671;48.972;9.276;2022-11-11T11:55:11;13.80;99.90
1355;DHT22;671;48.972;9.276;2022-11-11T12:00:19;13.90;99.90
1355;DHT22;671;48.972;9.276;2022-11-11T12:05:47;13.90;99.90
1355;DHT22;671;48.972;9.276;2022-11-11T12:11:28;14.00;99.90
1355;DHT22;671;48.972;9.276;2022-11-11T12:16:56;14.10;99.90
1355;DHT22;671;48.972;9.276;2022-11-11T12:27:55;14.10;99.90
1355;DHT22;671;48.972;9.276;2022-11-11T12:30:26;14.20;99.90
1355;DHT22;671;48.972;9.276;2022-11-11T12:43:32;14.30;99.90
1355;DHT22;671;48.972;9.276;2022-11-11T12:49:07;14.40;99.90
1355;DHT22;671;48.972;9.276;2022-11-11T12:51:55;14.40;99.90
1355;DHT22;671;48.972;9.276;2022-11-11T13:11:02;14.50;99.90
1355;DHT22;671;48.972;9.276;2022-11-11T13:13:55;14.50;99.90
1355;DHT22;671;48.972;9.276;2022-11-11T13:16:23;14.60;99.90
1355;DHT22;671;48.972;9.276;2022-11-11T13:18:59;14.60;99.90
1355;DHT22;671;48.972;9.276;2022-11-11T13:21:49;14.60;99.90
1355;DHT22;671;48.972;9.276;2022-11-11T13:24:20;14.60;99.90
1355;DHT22;671;48.972;9.276;2022-11-11T13:29:57;14.60;99.90
1355;DHT22;671;48.972;9.276;2022-11-11T13:32:58;14.50;99.90
1355;DHT22;671;48.972;9.276;2022-11-11T13:37:59;14.40;99.90
1355;DHT22;671;48.972;9.276;2022-11-11T13:40:35;14.30;99.90
1355;DHT22;671;48.972;9.276;2022-11-11T13:43:03;14.30;99.90
1355;DHT22;671;48.972;9.276;2022-11-11T13:45:36;14.30;99.90
1355;DHT22;671;48.972;9.276;2022-11-11T13:48:05;14.20;99.90
1355;DHT22;671;48.972;9.276;2022-11-11T13:50:39;14.20;99.90
1355;DHT22;671;48.972;9.276;2022-11-11T13:53:22;14.20;99.90
1355;DHT22;671;48.972;9.276;2022-11-11T13:55:51;14.20;99.90
1355;DHT22;671;48.972;9.276;2022-11-11T13:58:29;14.30;99.90
1355;DHT22;671;48.972;9.276;2022-11-11T14:01:02;14.20;99.90
1355;DHT22;671;48.972;9.276;2022-11-11T14:03:56;14.20;99.90
1355;DHT22;671;48.972;9.276;2022-11-11T14:06:33;14.20;99.90
1355;DHT22;671;48.972;9.276;2022-11-11T14:09:01;14.20;99.90
1355;DHT22;671;48.972;9.276;2022-11-11T14:11:33;14.20;99.90
1355;DHT22;671;48.972;9.276;2022-11-11T14:14:45;14.20;99.90
1355;DHT22;671;48.972;9.276;2022-11-11T14:17:13;14.20;99.90
1355;DHT22;671;48.972;9.276;2022-11-11T14:19:41;14.20;99.90
1355;DHT22;671;48.972;9.276;2022-11-11T14:22:32;14.20;99.90
1355;DHT22;671;48.972;9.276;2022-11-11T14:25:24;14.10;99.90
1355;DHT22;671;48.972;9.276;2022-11-11T14:27:50;14.10;99.90
1355;DHT22;671;48.972;9.276;2022-11-11T14:30:38;14.10;99.90
1355;DHT22;671;48.972;9.276;2022-11-11T14:33:39;14.10;99.90
1355;DHT22;671;48.972;9.276;2022-11-11T14:36:23;14.10;99.90
1355;DHT22;671;48.972;9.276;2022-11-11T14:44:59;14.00;99.90
1355;DHT22;671;48.972;9.276;2022-11-11T14:49:56;14.00;99.90
1355;DHT22;671;48.972;9.276;2022-11-11T14:57:36;13.90;99.90
1355;DHT22;671;48.972;9.276;2022-11-11T15:06:07;13.80;99.90
1355;DHT22;671;48.972;9.276;2022-11-11T15:19:38;13.40;99.90
1355;DHT22;671;48.972;9.276;2022-11-11T15:36:17;12.90;99.90
1355;DHT22;671;48.972;9.276;2022-11-11T15:38:47;12.80;99.90
1355;DHT22;671;48.972;9.276;2022-11-11T15:41:23;12.70;99.90
1355;DHT22;671;48.972;9.276;2022-11-11T15:43:51;12.60;99.90
1355;DHT22;671;48.972;9.276;2022-11-11T15:46:24;12.50;99.90
1355;DHT22;671;48.972;9.276;2022-11-11T15:48:52;12.40;99.90
1355;DHT22;671;48.972;9.276;2022-11-11T15:51:26;12.30;99.90
1355;DHT22;671;48.972;9.276;2022-11-11T15:53:53;12.20;99.90
1355;DHT22;671;48.972;9.276;2022-11-11T15:56:28;12.10;99.90
1355;DHT22;671;48.972;9.276;2022-11-11T15:58:55;12.00;99.90
1355;DHT22;671;48.972;9.276;2022-11-11T16:01:26;11.90;99.90
1355;DHT22;671;48.972;9.276;2022-11-11T16:03:54;11.80;99.90
1355;DHT22;671;48.972;9.276;2022-11-11T16:06:21;11.70;99.90
1355;DHT22;671;48.972;9.276;2022-11-11T16:08:50;11.60;99.90
1355;DHT22;671;48.972;9.276;2022-11-11T16:11:18;11.50;99.90
1355;DHT22;671;48.972;9.276;2022-11-11T16:16:23;11.40;99.90
1355;DHT22;671;48.972;9.276;2022-11-11T16:18:59;11.30;99.90
1355;DHT22;671;48.972;9.276;2022-11-11T16:22:04;11.10;99.90
1355;DHT22;671;48.972;9.276;2022-11-11T16:24:34;11.10;99.90
1355;DHT22;671;48.972;9.276;2022-11-11T16:27:06;11.00;99.90
1355;DHT22;671;48.972;9.276;2022-11-11T16:29:36;10.90;99.90
1355;DHT22;671;48.972;9.276;2022-11-11T16:34:49;10.70;99.90
1355;DHT22;671;48.972;9.276;2022-11-11T16:37:16;10.60;99.90
1355;DHT22;671;48.972;9.276;2022-11-11T16:39:44;10.60;99.90
1355;DHT22;671;48.972;9.276;2022-11-11T16:45:02;10.40;99.90
1355;DHT22;671;48.972;9.276;2022-11-11T16:52:51;10.20;99.90
1355;DHT22;671;48.972;9.276;2022-11-11T16:55:19;10.10;99.90
1355;DHT22;671;48.972;9.276;2022-11-11T16:57:49;10.10;99.90
1355;DHT22;671;48.972;9.276;2022-11-11T17:00:18;10.00;99.90
1355;DHT22;671;48.972;9.276;2022-11-11T17:02:44;10.00;99.90
1355;DHT22;671;48.972;9.276;2022-11-11T17:05:11;9.90;99.90
1355;DHT22;671;48.972;9.276;2022-11-11T17:07:40;9.90;99.90
1355;DHT22;671;48.972;9.276;2022-11-11T17:12:34;9.80;99.90
1355;DHT22;671;48.972;9.276;2022-11-11T17:15:00;9.80;99.90
1355;DHT22;671;48.972;9.276;2022-11-11T17:17:29;9.80;99.90
1355;DHT22;671;48.972;9.276;2022-11-11T17:20:07;9.70;99.90
1355;DHT22;671;48.972;9.276;2022-11-11T17:22:35;9.60;99.90
1355;DHT22;671;48.972;9.276;2022-11-11T17:25:02;9.60;99.90
1355;DHT22;671;48.972;9.276;2022-11-11T17:27:29;9.50;99.90
1355;DHT22;671;48.972;9.276;2022-11-11T17:29:57;9.50;99.90
1355;DHT22;671;48.972;9.276;2022-11-11T17:32:23;9.50;99.90
1355;DHT22;671;48.972;9.276;2022-11-11T17:34:50;9.40;99.90
1355;DHT22;671;48.972;9.276;2022-11-11T17:37:16;9.40;99.90
1355;DHT22;671;48.972;9.276;2022-11-11T17:39:43;9.30;99.90
1355;DHT22;671;48.972;9.276;2022-11-11T17:42:10;9.20;99.90
1355;DHT22;671;48.972;9.276;2022-11-11T17:44:36;9.20;99.90
1355;DHT22;671;48.972;9.276;2022-11-11T17:47:03;9.20;99.90
1355;DHT22;671;48.972;9.276;2022-11-11T17:49:29;9.10;99.90
1355;DHT22;671;48.972;9.276;2022-11-11T17:51:56;9.10;99.90
1355;DHT22;671;48.972;9.276;2022-11-11T17:54:22;9.00;99.90
1355;DHT22;671;48.972;9.276;2022-11-11T17:56:53;9.00;99.90
1355;DHT22;671;48.972;9.276;2022-11-11T17:59:20;8.90;99.90
1355;DHT22;671;48.972;9.276;2022-11-11T18:01:46;8.80;99.90
1355;DHT22;671;48.972;9.276;2022-11-11T18:04:13;8.80;99.90
1355;DHT22;671;48.972;9.276;2022-11-11T18:06:39;8.80;99.90
1355;DHT22;671;48.972;9.276;2022-11-11T18:09:06;8.80;99.90
1355;DHT22;671;48.972;9.276;2022-11-11T18:11:34;8.70;99.90
1355;DHT22;671;48.972;9.276;2022-11-11T18:14:01;8.70;99.90
1355;DHT22;671;48.972;9.276;2022-11-11T18:16:27;8.70;99.90
1355;DHT22;671;48.972;9.276;2022-11-11T18:18:54;8.60;99.90
1355;DHT22;671;48.972;9.276;2022-11-11T18:21:25;8.60;99.90
1355;DHT22;671;48.972;9.276;2022-11-11T18:23:51;8.60;99.90
1355;DHT22;671;48.972;9.276;2022-11-11T18:26:18;8.60;99.90
1355;DHT22;671;48.972;9.276;2022-11-11T18:28:46;8.50;99.90
1355;DHT22;671;48.972;9.276;2022-11-11T18:31:13;8.50;99.90
1355;DHT22;671;48.972;9.276;2022-11-11T18:33:42;8.50;99.90
1355;DHT22;671;48.972;9.276;2022-11-11T18:36:18;8.50;99.90
1355;DHT22;671;48.972;9.276;2022-11-11T18:38:46;8.40;99.90
1355;DHT22;671;48.972;9.276;2022-11-11T18:41:15;8.40;99.90
1355;DHT22;671;48.972;9.276;2022-11-11T18:43:44;8.40;99.90
1355;DHT22;671;48.972;9.276;2022-11-11T18:46:16;8.30;99.90
1355;DHT22;671;48.972;9.276;2022-11-11T18:48:43;8.30;99.90
1355;DHT22;671;48.972;9.276;2022-11-11T18:51:15;8.20;99.90
1355;DHT22;671;48.972;9.276;2022-11-11T18:53:42;8.10;99.90
1355;DHT22;671;48.972;9.276;2022-11-11T18:56:11;8.10;99.90
1355;DHT22;671;48.972;9.276;2022-11-11T18:58:38;8.00;99.90
1355;DHT22;671;48.972;9.276;2022-11-11T19:01:10;8.00;99.90
1355;DHT22;671;48.972;9.276;2022-11-11T19:03:39;8.00;99.90
1355;DHT22;671;48.972;9.276;2022-11-11T19:06:07;7.90;99.90
1355;DHT22;671;48.972;9.276;2022-11-11T19:08:34;7.90;99.90
1355;DHT22;671;48.972;9.276;2022-11-11T19:11:02;7.90;99.90
1355;DHT22;671;48.972;9.276;2022-11-11T19:13:29;7.90;99.90
1355;DHT22;671;48.972;9.276;2022-11-11T19:15:56;7.90;99.90
1355;DHT22;671;48.972;9.276;2022-11-11T19:18:29;7.90;99.90
1355;DHT22;671;48.972;9.276;2022-11-11T19:20:55;7.80;99.90
1355;DHT22;671;48.972;9.276;2022-11-11T19:23:22;7.80;99.90
1355;DHT22;671;48.972;9.276;2022-11-11T19:25:48;7.80;99.90
1355;DHT22;671;48.972;9.276;2022-11-11T19:28:15;7.80;99.90
1355;DHT22;671;48.972;9.276;2022-11-11T19:30:41;7.80;99.90
1355;DHT22;671;48.972;9.276;2022-11-11T19:33:08;7.70;99.90
1355;DHT22;671;48.972;9.276;2022-11-11T19:35:34;7.70;99.90
1355;DHT22;671;48.972;9.276;2022-11-11T19:38:01;7.70;99.90
1355;DHT22;671;48.972;9.276;2022-11-11T19:40:27;7.70;99.90
1355;DHT22;671;48.972;9.276;2022-11-11T19:42:54;7.70;99.90
1355;DHT22;671;48.972;9.276;2022-11-11T19:45:20;7.70;99.90
1355;DHT22;671;48.972;9.276;2022-11-11T19:47:50;7.70;99.90